Time;durP1;ratioP1;P1;durP2;ratioP2;P2;SDS_P1;SDS_P2;PMS_P1;PMS_P2;Temp;Humidity;BMP_temperature;BMP_pressure;BME280_temperature;BME280_humidity;BME280_pressure;Samples;Min_cycle;Max_cycle;Signal;HPM_P1;HPM_P2
2022/09/02 00:00:46;;;;;;;2.73;0.70;;;16.10;80.50;;;;;;4320994;28;10000648;-77
2022/09/02 00:03:13;;;;;;;1.70;0.70;;;16.10;80.60;;;;;;5005257;28;20036;-77
2022/09/02 00:05:39;;;;;;;1.25;0.77;;;16.10;80.50;;;;;;5014717;28;20032;-77
2022/09/02 00:08:05;;;;;;;1.90;0.75;;;16.10;80.60;;;;;;5018717;28;20022;-77
2022/09/02 00:10:33;;;;;;;1.40;0.90;;;16.10;80.90;;;;;;5014379;28;20494;-77
2022/09/02 00:12:59;;;;;;;1.13;0.57;;;16.10;81.10;;;;;;5013955;28;20125;-78
2022/09/02 00:15:25;;;;;;;2.50;0.73;;;16.10;81.20;;;;;;5016106;28;20128;-77
2022/09/02 00:17:51;;;;;;;1.75;0.70;;;16.10;81.20;;;;;;5012169;28;20033;-77
2022/09/02 00:20:17;;;;;;;1.15;0.70;;;16.10;81.30;;;;;;5016194;28;20084;-77
2022/09/02 00:22:43;;;;;;;3.17;0.80;;;16.10;81.50;;;;;;5013601;28;20026;-77
2022/09/02 00:25:09;;;;;;;2.53;0.73;;;16.00;81.40;;;;;;5013571;28;20036;-77
2022/09/02 00:27:35;;;;;;;1.33;0.63;;;16.00;81.40;;;;;;5018078;28;20410;-78
2022/09/02 00:30:00;;;;;;;3.58;0.70;;;16.00;81.50;;;;;;5014192;28;20037;-77
2022/09/02 00:32:26;;;;;;;2.08;0.77;;;16.10;81.70;;;;;;5012767;28;20049;-77
2022/09/02 00:34:52;;;;;;;2.33;0.70;;;16.10;81.70;;;;;;5010975;28;20525;-78
2022/09/02 00:37:18;;;;;;;2.22;0.70;;;16.10;82.50;;;;;;5016764;28;20025;-77
2022/09/02 00:39:43;;;;;;;1.05;0.82;;;16.00;81.90;;;;;;5017164;28;20121;-78
2022/09/02 00:42:09;;;;;;;2.45;0.60;;;16.00;82.10;;;;;;5009537;28;20041;-77
2022/09/02 00:44:34;;;;;;;1.60;0.70;;;16.00;82.40;;;;;;5009233;28;20394;-78
2022/09/02 00:47:00;;;;;;;3.85;0.80;;;16.00;82.30;;;;;;5016466;28;20389;-78
2022/09/02 00:49:37;;;;;;;1.25;0.68;;;16.00;82.40;;;;;;5009826;28;20107;-77
2022/09/02 00:52:13;;;;;;;3.47;0.63;;;16.00;82.60;;;;;;5009711;28;20078;-78
2022/09/02 00:54:44;;;;;;;1.35;0.80;;;15.90;82.70;;;;;;5012998;28;20030;-78
2022/09/02 00:57:18;;;;;;;3.70;0.80;;;15.90;82.80;;;;;;5011965;28;20042;-77
2022/09/02 00:59:55;;;;;;;1.95;0.77;;;15.90;83.00;;;;;;5020098;28;20049;-78
2022/09/02 01:02:24;;;;;;;4.45;1.13;;;15.90;83.10;;;;;;5018756;28;20549;-78
2022/09/02 01:04:50;;;;;;;2.90;1.13;;;15.80;83.20;;;;;;4661837;28;9999874;-78
2022/09/02 01:07:15;;;;;;;2.20;0.90;;;15.80;83.30;;;;;;5011778;28;20022;-78
2022/09/02 01:09:41;;;;;;;3.80;1.08;;;15.80;83.60;;;;;;5011786;28;20029;-77
2022/09/02 01:12:07;;;;;;;5.20;1.25;;;15.70;83.80;;;;;;5016513;28;20406;-77
2022/09/02 01:14:34;;;;;;;5.72;1.08;;;15.70;83.60;;;;;;5011429;28;20025;-77
2022/09/02 01:17:01;;;;;;;2.45;1.05;;;15.80;83.60;;;;;;5016618;28;20044;-78
2022/09/02 01:19:50;;;;;;;3.75;1.33;;;15.70;83.70;;;;;;5012234;28;20043;-77
2022/09/02 01:22:20;;;;;;;5.53;1.40;;;15.70;83.90;;;;;;5013609;28;20029;-77
2022/09/02 01:24:46;;;;;;;3.42;1.38;;;15.70;83.90;;;;;;5016427;28;20083;-76
2022/09/02 01:27:17;;;;;;;3.67;1.38;;;15.60;84.10;;;;;;5021437;28;20022;-77
2022/09/02 01:29:43;;;;;;;3.35;1.40;;;15.60;84.00;;;;;;5009121;28;21402;-77
2022/09/02 01:32:10;;;;;;;2.70;1.55;;;15.60;84.40;;;;;;5012196;28;20269;-77
2022/09/02 01:34:36;;;;;;;3.30;1.77;;;15.60;84.40;;;;;;5011775;28;20303;-77
2022/09/02 01:37:01;;;;;;;5.70;1.35;;;15.60;84.60;;;;;;5016173;28;20439;-77
2022/09/02 01:39:27;;;;;;;5.00;1.30;;;15.60;84.70;;;;;;5008463;28;20037;-77
2022/09/02 01:41:53;;;;;;;2.22;1.20;;;15.50;84.80;;;;;;5004453;28;20504;-78
2022/09/02 01:44:18;;;;;;;4.78;1.60;;;15.50;84.80;;;;;;5007563;28;20615;-78
2022/09/02 01:46:44;;;;;;;1.70;1.20;;;15.50;84.80;;;;;;5012544;28;20482;-77
2022/09/02 01:49:11;;;;;;;4.38;1.20;;;15.50;85.40;;;;;;5009291;28;20389;-77
2022/09/02 01:51:36;;;;;;;4.60;1.20;;;15.40;85.40;;;;;;5001715;28;20531;-77
2022/09/02 01:54:02;;;;;;;6.53;1.25;;;15.40;85.30;;;;;;5013199;28;20017;-77
2022/09/02 01:56:28;;;;;;;3.60;1.33;;;15.40;85.60;;;;;;5010910;28;20022;-79
2022/09/02 01:58:54;;;;;;;3.88;1.30;;;15.40;85.70;;;;;;5020463;28;20068;-77
2022/09/02 02:01:20;;;;;;;5.15;1.50;;;15.40;85.80;;;;;;5018571;28;20533;-78
2022/09/02 02:03:45;;;;;;;2.92;1.23;;;15.40;86.00;;;;;;5021721;28;20030;-77
2022/09/02 02:06:15;;;;;;;7.75;1.60;;;15.40;86.20;;;;;;5016347;28;20025;-77
2022/09/02 02:08:41;;;;;;;5.60;1.35;;;15.40;86.20;;;;;;5017144;28;20109;-77
2022/09/02 02:11:08;;;;;;;4.28;1.52;;;15.40;86.30;;;;;;5015547;28;20035;-78
2022/09/02 02:13:34;;;;;;;2.90;1.30;;;15.30;86.50;;;;;;5017562;28;20029;-77
2022/09/02 02:16:00;;;;;;;3.85;1.20;;;15.40;86.80;;;;;;5019976;28;20500;-77
2022/09/02 02:18:26;;;;;;;1.50;1.13;;;15.30;86.90;;;;;;5021799;28;20512;-77
2022/09/02 02:20:52;;;;;;;4.43;1.25;;;15.30;87.20;;;;;;5022993;28;20024;-78
2022/09/02 02:23:18;;;;;;;4.80;1.30;;;15.30;87.50;;;;;;5017043;28;20030;-77
2022/09/02 02:25:44;;;;;;;1.70;1.15;;;15.30;87.70;;;;;;5018076;28;20021;-77
2022/09/02 02:28:10;;;;;;;3.28;1.20;;;15.20;87.80;;;;;;5020146;28;20489;-77
2022/09/02 02:30:35;;;;;;;3.08;1.05;;;15.30;88.00;;;;;;5022328;28;20547;-77
2022/09/02 02:33:01;;;;;;;4.25;1.17;;;15.20;88.10;;;;;;5014636;28;20037;-77
2022/09/02 02:35:27;;;;;;;3.70;1.45;;;15.20;88.30;;;;;;5022825;28;20049;-77
2022/09/02 02:37:53;;;;;;;2.40;1.40;;;15.10;88.30;;;;;;5008998;28;20034;-77
2022/09/02 02:40:22;;;;;;;3.40;1.30;;;15.10;88.50;;;;;;5012092;28;20510;-76
2022/09/02 02:42:49;;;;;;;3.10;1.52;;;15.10;88.60;;;;;;5014649;28;20069;-77
2022/09/02 02:45:14;;;;;;;3.17;1.40;;;15.10;88.70;;;;;;5018150;28;20033;-77
2022/09/02 02:47:42;;;;;;;5.53;1.42;;;15.10;88.80;;;;;;5013233;28;20036;-77
2022/09/02 02:50:11;;;;;;;2.33;1.27;;;15.10;88.90;;;;;;5016281;28;20022;-77
2022/09/02 02:52:38;;;;;;;4.53;1.40;;;15.10;89.10;;;;;;5016634;28;20029;-77
2022/09/02 02:55:05;;;;;;;3.75;1.02;;;15.10;89.20;;;;;;5013210;28;20254;-77
2022/09/02 02:57:32;;;;;;;1.98;1.10;;;15.10;89.30;;;;;;5018071;28;20183;-78
2022/09/02 03:00:01;;;;;;;3.40;1.30;;;15.00;89.40;;;;;;5013888;28;20061;-78
2022/09/02 03:02:32;;;;;;;3.47;1.50;;;15.00;89.60;;;;;;5010901;28;20037;-77
2022/09/02 03:04:57;;;;;;;3.00;1.40;;;15.00;89.90;;;;;;5020401;28;20017;-77
2022/09/02 03:07:23;;;;;;;7.03;1.55;;;15.00;90.00;;;;;;5022172;28;20084;-77
2022/09/02 03:09:48;;;;;;;2.42;1.50;;;15.00;90.00;;;;;;5022745;28;20108;-77
2022/09/02 03:12:15;;;;;;;2.65;1.50;;;15.00;90.10;;;;;;5019704;28;20025;-77
2022/09/02 03:14:42;;;;;;;4.65;1.50;;;15.00;90.20;;;;;;5013713;28;20379;-77
2022/09/02 03:17:08;;;;;;;5.05;1.60;;;15.00;90.20;;;;;;5008812;28;20179;-77
2022/09/02 03:19:34;;;;;;;6.78;1.80;;;14.90;90.30;;;;;;5011421;28;20112;-77
2022/09/02 03:22:00;;;;;;;2.97;1.42;;;14.90;90.40;;;;;;5008517;28;20056;-78
2022/09/02 03:24:25;;;;;;;2.58;1.27;;;15.00;90.40;;;;;;5017086;28;20025;-78
2022/09/02 03:26:51;;;;;;;5.22;1.60;;;14.90;90.50;;;;;;5019130;28;20063;-78
2022/09/02 03:29:17;;;;;;;2.75;1.38;;;14.90;90.50;;;;;;5020518;28;20169;-77
2022/09/02 03:31:42;;;;;;;3.10;1.55;;;14.90;90.50;;;;;;5007984;28;21034;-77
2022/09/02 03:34:08;;;;;;;3.30;1.63;;;14.90;90.60;;;;;;5015472;28;20097;-77
2022/09/02 03:36:37;;;;;;;6.88;1.50;;;14.90;90.70;;;;;;5016690;28;20017;-77
2022/09/02 03:39:05;;;;;;;3.25;1.88;;;14.90;90.70;;;;;;5012914;28;20037;-77
2022/09/02 03:41:31;;;;;;;4.57;1.73;;;14.90;91.10;;;;;;5012512;28;20099;-76
2022/09/02 03:43:57;;;;;;;4.28;1.60;;;14.80;90.80;;;;;;5014397;28;20258;-77
2022/09/02 03:46:24;;;;;;;5.18;1.60;;;14.80;90.90;;;;;;5017773;28;20493;-77
2022/09/02 03:48:50;;;;;;;5.30;1.40;;;14.80;90.90;;;;;;5015724;28;20519;-77
2022/09/02 03:51:18;;;;;;;5.05;1.50;;;14.80;91.00;;;;;;5013383;28;20561;-77
2022/09/02 03:53:43;;;;;;;4.00;1.65;;;14.80;91.10;;;;;;5013536;28;20137;-77
2022/09/02 03:56:11;;;;;;;3.85;1.70;;;14.80;91.20;;;;;;5010443;28;20443;-77
2022/09/02 03:58:37;;;;;;;5.35;1.70;;;14.80;91.20;;;;;;5017528;28;20068;-76
2022/09/02 04:01:04;;;;;;;9.98;2.00;;;14.80;91.20;;;;;;5008649;28;20034;-77
2022/09/02 04:03:30;;;;;;;5.20;1.73;;;14.70;91.30;;;;;;5011668;28;20044;-77
2022/09/02 04:05:56;;;;;;;4.80;1.70;;;14.70;91.40;;;;;;5020046;28;20347;-77
2022/09/02 04:08:22;;;;;;;4.90;1.92;;;14.70;91.50;;;;;;5007683;28;20092;-77
2022/09/02 04:10:48;;;;;;;5.95;2.00;;;14.70;91.50;;;;;;5013707;28;20367;-78
2022/09/02 04:13:13;;;;;;;3.35;1.73;;;14.70;91.60;;;;;;5010349;28;20039;-77
2022/09/02 04:15:46;;;;;;;5.32;2.13;;;14.60;91.60;;;;;;5017906;28;20037;-78
2022/09/02 04:18:13;;;;;;;3.78;1.70;;;14.60;91.70;;;;;;5009635;28;20025;-77
2022/09/02 04:20:40;;;;;;;5.47;1.10;;;14.60;91.80;;;;;;5014798;28;20044;-77
2022/09/02 04:23:06;;;;;;;3.63;1.20;;;14.60;91.80;;;;;;4998133;28;20022;-78
2022/09/02 04:25:32;;;;;;;2.28;1.00;;;14.60;91.80;;;;;;5005957;28;20029;-78
2022/09/02 04:27:58;;;;;;;1.85;1.10;;;14.50;91.90;;;;;;5016217;28;20026;-77
2022/09/02 04:30:24;;;;;;;5.45;1.20;;;14.50;92.00;;;;;;5021667;28;20029;-77
2022/09/02 04:32:51;;;;;;;1.40;1.00;;;14.50;92.00;;;;;;5011619;28;20036;-77
2022/09/02 04:35:17;;;;;;;3.38;1.10;;;14.50;92.40;;;;;;5018193;28;20104;-77
2022/09/02 04:37:43;;;;;;;1.65;0.85;;;14.50;92.10;;;;;;5016591;28;20430;-77
2022/09/02 04:40:09;;;;;;;4.82;0.80;;;14.50;92.20;;;;;;5014288;28;20060;-78
2022/09/02 04:42:35;;;;;;;2.30;1.00;;;14.50;92.30;;;;;;5014125;28;20706;-77
2022/09/02 04:45:00;;;;;;;2.97;0.90;;;14.50;92.30;;;;;;5015100;28;20029;-77
2022/09/02 04:47:26;;;;;;;2.85;0.90;;;14.40;92.40;;;;;;5006369;28;20060;-77
2022/09/02 04:49:53;;;;;;;4.10;1.10;;;14.40;92.60;;;;;;5014316;28;20021;-77
2022/09/02 04:52:19;;;;;;;1.77;1.20;;;14.40;92.50;;;;;;5016618;28;20037;-77
2022/09/02 04:54:46;;;;;;;4.13;0.95;;;14.40;92.60;;;;;;5023881;28;20083;-77
2022/09/02 04:57:11;;;;;;;3.25;1.00;;;14.40;92.70;;;;;;5014811;28;20037;-77
2022/09/02 04:59:37;;;;;;;1.95;0.90;;;14.40;92.70;;;;;;5013965;28;20055;-77
2022/09/02 05:02:04;;;;;;;2.17;1.10;;;14.50;92.80;;;;;;5013709;28;20030;-77
2022/09/02 05:04:30;;;;;;;3.17;1.10;;;14.50;92.80;;;;;;5013468;28;20514;-77
2022/09/02 05:06:57;;;;;;;2.42;0.98;;;14.50;92.80;;;;;;5009921;28;20150;-77
2022/09/02 05:09:23;;;;;;;5.43;0.90;;;14.50;92.90;;;;;;5011343;28;20034;-78
2022/09/02 05:11:49;;;;;;;2.25;1.00;;;14.50;92.90;;;;;;5004924;28;20413;-77
2022/09/02 05:14:15;;;;;;;2.90;0.98;;;14.50;92.90;;;;;;5015031;28;20025;-77
2022/09/02 05:16:41;;;;;;;2.42;0.98;;;14.60;92.90;;;;;;5010757;28;20095;-77
2022/09/02 05:19:09;;;;;;;3.03;1.00;;;14.50;93.00;;;;;;5008457;28;20022;-77
2022/09/02 05:21:39;;;;;;;1.42;0.85;;;14.60;93.00;;;;;;5011280;28;20033;-77
2022/09/02 05:24:05;;;;;;;2.50;0.98;;;14.60;93.10;;;;;;5012315;28;20026;-77
2022/09/02 05:26:34;;;;;;;1.38;1.05;;;14.60;93.10;;;;;;5010427;28;20033;-76
2022/09/02 05:29:02;;;;;;;5.18;1.10;;;14.60;93.20;;;;;;5018840;28;20040;-77
2022/09/02 05:31:27;;;;;;;5.60;0.90;;;14.70;93.20;;;;;;5013081;28;20030;-76
2022/09/02 05:33:53;;;;;;;2.47;1.42;;;14.70;93.20;;;;;;5014760;28;20413;-75
2022/09/02 05:36:21;;;;;;;1.50;0.95;;;14.70;93.30;;;;;;5018993;28;20448;-75
2022/09/02 05:38:47;;;;;;;3.80;1.40;;;14.70;93.40;;;;;;5014665;28;20076;-75
2022/09/02 05:41:18;;;;;;;1.40;0.93;;;14.80;93.30;;;;;;5016945;28;20021;-75
2022/09/02 05:43:45;;;;;;;1.75;1.20;;;14.80;93.40;;;;;;5018518;28;20030;-75
2022/09/02 05:46:16;;;;;;;1.60;1.10;;;14.90;93.40;;;;;;5017590;28;20120;-78
2022/09/02 05:51:27;;;;;;;2.70;1.20;;;14.90;93.40;;;;;;5013827;28;20103;-79
2022/09/02 05:53:54;;;;;;;3.78;1.30;;;15.00;93.40;;;;;;5017106;28;20477;-79
2022/09/02 05:56:21;;;;;;;4.22;1.23;;;15.00;93.40;;;;;;5016376;28;20025;-79
2022/09/02 05:58:46;;;;;;;2.80;1.40;;;15.10;93.30;;;;;;5012686;28;20115;-79
2022/09/02 06:01:14;;;;;;;5.30;1.30;;;15.10;93.20;;;;;;5016840;28;20485;-79
2022/09/02 06:03:40;;;;;;;3.10;1.40;;;15.20;93.30;;;;;;5006034;28;20065;-79
2022/09/02 06:06:06;;;;;;;7.57;1.90;;;15.20;93.30;;;;;;5019133;28;20092;-78
2022/09/02 06:08:33;;;;;;;2.08;1.50;;;15.20;93.40;;;;;;5023266;28;20046;-79
2022/09/02 06:11:00;;;;;;;5.10;2.08;;;15.20;93.40;;;;;;5017283;28;20026;-79
2022/09/02 06:13:30;;;;;;;3.75;1.67;;;15.30;93.50;;;;;;5008049;28;20038;-78
2022/09/02 06:15:56;;;;;;;6.78;1.92;;;15.30;93.30;;;;;;5007829;28;20036;-79
2022/09/02 06:18:23;;;;;;;3.03;1.70;;;15.40;93.40;;;;;;5006638;28;20030;-79
2022/09/02 06:20:49;;;;;;;4.43;1.80;;;15.40;93.30;;;;;;5015156;28;20112;-79
2022/09/02 06:23:16;;;;;;;5.10;2.05;;;15.50;93.40;;;;;;5007108;28;20037;-79
2022/09/02 06:25:43;;;;;;;5.40;2.38;;;15.50;93.30;;;;;;5016572;28;20029;-79
2022/09/02 06:28:10;;;;;;;5.78;1.83;;;15.50;93.30;;;;;;5017784;28;20025;-79
2022/09/02 06:30:38;;;;;;;5.07;2.03;;;15.60;93.40;;;;;;5015521;28;20061;-79
2022/09/02 06:33:04;;;;;;;6.85;2.17;;;15.60;93.40;;;;;;5015379;28;20529;-77
2022/09/02 06:35:35;;;;;;;7.97;2.08;;;15.70;93.30;;;;;;5013629;28;20132;-79
2022/09/02 06:38:00;;;;;;;5.38;2.00;;;15.80;93.20;;;;;;5023840;28;20498;-81
2022/09/02 06:40:27;;;;;;;7.63;2.17;;;15.80;93.20;;;;;;5020148;28;20059;-81
2022/09/02 06:42:53;;;;;;;9.60;2.63;;;15.90;93.20;;;;;;5006586;28;20108;-79
2022/09/02 06:45:19;;;;;;;9.57;2.40;;;15.90;93.10;;;;;;5021189;28;20607;-79
2022/09/02 06:47:45;;;;;;;7.90;1.80;;;16.00;93.30;;;;;;5014419;28;20030;-79
2022/09/02 06:50:11;;;;;;;9.40;1.98;;;16.10;93.00;;;;;;5020505;28;20277;-79
2022/09/02 06:52:37;;;;;;;5.20;1.50;;;16.10;92.80;;;;;;5006189;28;20064;-79
2022/09/02 06:55:03;;;;;;;7.80;1.55;;;16.10;92.80;;;;;;5016654;28;20060;-78
2022/09/02 06:57:29;;;;;;;7.20;1.88;;;16.20;92.90;;;;;;5017800;28;20088;-72
2022/09/02 06:59:55;;;;;;;5.88;1.90;;;16.20;92.90;;;;;;5016211;28;20080;-72
2022/09/02 07:02:20;;;;;;;7.13;1.50;;;16.30;92.60;;;;;;5013896;28;20492;-72
2022/09/02 07:07:30;;;;;;;7.00;1.55;;;16.30;92.50;;;;;;5018254;28;20084;-72
2022/09/02 07:09:56;;;;;;;7.53;1.67;;;16.40;92.70;;;;;;5026144;28;20029;-72
2022/09/02 07:12:21;;;;;;;2.20;1.20;;;16.40;92.70;;;;;;5021900;28;20124;-72
2022/09/02 07:14:47;;;;;;;5.07;1.40;;;16.50;92.70;;;;;;5025374;28;20029;-72
2022/09/02 07:17:20;;;;;;;3.95;1.30;;;16.60;92.70;;;;;;5012608;28;20631;-72
2022/09/02 07:19:47;;;;;;;2.58;1.17;;;16.60;92.50;;;;;;5018150;28;20083;-72
2022/09/02 07:22:12;;;;;;;4.88;1.10;;;16.70;92.50;;;;;;5010105;28;20056;-72
2022/09/02 07:24:38;;;;;;;4.22;1.38;;;16.70;92.50;;;;;;5023708;28;20473;-73
2022/09/02 07:27:05;;;;;;;4.63;1.30;;;16.80;92.40;;;;;;5024609;28;20455;-72
2022/09/02 07:29:31;;;;;;;4.10;1.30;;;16.80;92.40;;;;;;5011264;28;20104;-72
2022/09/02 07:31:57;;;;;;;5.78;1.40;;;16.90;92.40;;;;;;5022490;28;20030;-72
2022/09/02 07:34:23;;;;;;;5.68;1.40;;;16.90;92.60;;;;;;5001611;28;20034;-72
2022/09/02 07:36:49;;;;;;;3.30;1.40;;;17.00;92.70;;;;;;5016939;28;20498;-72
2022/09/02 07:39:16;;;;;;;5.45;1.50;;;17.00;92.60;;;;;;5009700;28;20052;-73
2022/09/02 07:41:46;;;;;;;5.38;1.52;;;17.00;92.90;;;;;;5024529;28;20033;-72
2022/09/02 07:44:12;;;;;;;6.60;1.20;;;17.10;92.50;;;;;;5018630;28;20060;-72
2022/09/02 07:46:39;;;;;;;4.88;1.23;;;17.10;92.40;;;;;;5021252;28;20127;-72
2022/09/02 07:49:06;;;;;;;7.05;1.50;;;17.20;91.90;;;;;;5007768;28;20033;-72
2022/09/02 07:51:33;;;;;;;5.70;1.30;;;17.30;92.40;;;;;;5016743;28;20060;-72
2022/09/02 07:54:00;;;;;;;4.13;1.63;;;17.30;92.10;;;;;;5007492;28;20021;-72
2022/09/02 07:56:25;;;;;;;6.88;1.45;;;17.40;92.30;;;;;;5010531;28;20116;-72
2022/09/02 07:58:51;;;;;;;4.35;1.40;;;17.50;92.30;;;;;;5027516;28;20458;-72
2022/09/02 08:01:19;;;;;;;5.60;1.50;;;17.50;92.10;;;;;;5018408;28;20034;-72
2022/09/02 08:03:45;;;;;;;3.88;1.13;;;17.60;91.80;;;;;;5015901;28;20271;-72
2022/09/02 08:06:12;;;;;;;5.13;1.33;;;17.70;91.70;;;;;;5015354;28;20091;-71
2022/09/02 08:08:39;;;;;;;6.50;1.17;;;17.80;91.50;;;;;;5020894;28;20490;-72
2022/09/02 08:11:05;;;;;;;6.57;1.38;;;17.80;91.10;;;;;;5016037;28;20521;-72
2022/09/02 08:13:31;;;;;;;5.97;1.30;;;17.90;90.90;;;;;;5018229;28;20036;-72
2022/09/02 08:15:57;;;;;;;2.53;1.33;;;18.00;90.90;;;;;;5024984;28;20033;-72
2022/09/02 08:18:23;;;;;;;2.70;1.30;;;18.00;90.60;;;;;;5014367;28;20041;-72
2022/09/02 08:20:49;;;;;;;4.00;1.35;;;18.10;90.80;;;;;;5023062;28;20033;-71
2022/09/02 08:23:15;;;;;;;4.60;1.20;;;18.20;90.70;;;;;;5020939;28;20036;-71
2022/09/02 08:25:41;;;;;;;4.82;1.27;;;18.30;90.60;;;;;;5021783;28;20071;-71
2022/09/02 08:28:06;;;;;;;2.85;1.20;;;18.40;90.30;;;;;;5011103;28;20387;-72
2022/09/02 08:30:33;;;;;;;3.53;1.20;;;18.50;90.00;;;;;;5013489;28;21071;-71
2022/09/02 08:32:58;;;;;;;3.10;1.00;;;18.60;89.80;;;;;;5020027;28;20034;-72
2022/09/02 08:35:24;;;;;;;4.65;1.38;;;18.70;89.70;;;;;;5013450;28;20075;-71
2022/09/02 08:37:50;;;;;;;2.90;1.08;;;18.90;89.90;;;;;;5025202;28;20497;-73
2022/09/02 08:40:22;;;;;;;2.60;1.00;;;19.10;89.30;;;;;;5020655;28;20314;-72
2022/09/02 08:42:51;;;;;;;8.00;1.35;;;19.30;88.70;;;;;;5010843;28;20041;-72
2022/09/02 08:45:27;;;;;;;5.32;1.30;;;19.40;87.50;;;;;;5017625;28;20037;-72
2022/09/02 08:48:20;;;;;;;5.20;1.00;;;19.60;87.10;;;;;;5023266;28;20053;-72
2022/09/02 08:50:48;;;;;;;6.60;1.27;;;19.70;86.60;;;;;;5019111;28;20116;-72
2022/09/02 08:53:25;;;;;;;3.60;1.13;;;19.70;86.10;;;;;;5019075;28;20033;-71
2022/09/02 08:55:54;;;;;;;4.18;1.20;;;19.70;85.90;;;;;;5008093;28;20080;-72
2022/09/02 08:58:24;;;;;;;4.65;1.25;;;19.80;85.90;;;;;;5013186;28;20053;-73
2022/09/02 09:01:12;;;;;;;6.10;1.30;;;19.90;85.90;;;;;;5013807;28;20034;-72
2022/09/02 09:03:58;;;;;;;4.90;1.20;;;20.00;86.30;;;;;;5015742;28;20099;-72
2022/09/02 09:06:55;;;;;;;1.40;1.15;;;20.20;86.00;;;;;;5018535;28;20030;-72
2022/09/02 09:09:54;;;;;;;7.25;1.33;;;20.50;85.20;;;;;;5012174;28;20506;-72
2022/09/02 09:12:38;;;;;;;4.13;1.40;;;20.70;83.70;;;;;;5010466;28;20509;-71
2022/09/02 09:15:37;;;;;;;4.75;1.10;;;20.80;83.20;;;;;;5008561;28;20500;-72
2022/09/02 09:18:07;;;;;;;6.95;1.40;;;20.90;83.10;;;;;;5015895;28;20121;-72
2022/09/02 09:20:38;;;;;;;3.92;1.10;;;20.90;82.60;;;;;;5011130;28;20041;-72
2022/09/02 09:23:29;;;;;;;5.25;1.15;;;20.90;82.40;;;;;;5020542;28;20477;-72
2022/09/02 09:26:06;;;;;;;6.47;1.00;;;21.10;81.80;;;;;;5011785;28;20037;-72
2022/09/02 09:28:43;;;;;;;5.03;1.20;;;21.30;80.20;;;;;;5025398;28;20030;-72
2022/09/02 09:31:21;;;;;;;5.18;1.05;;;21.20;79.40;;;;;;5024612;28;20029;-72
2022/09/02 09:34:03;;;;;;;1.95;1.17;;;21.20;79.20;;;;;;5011921;28;20024;-71
2022/09/02 09:36:38;;;;;;;4.03;1.20;;;21.30;79.30;;;;;;5007236;28;20474;-71
2022/09/02 09:39:24;;;;;;;1.23;0.90;;;21.50;78.70;;;;;;5013909;28;20018;-72
2022/09/02 09:41:54;;;;;;;3.80;1.13;;;21.60;78.20;;;;;;5021125;28;20030;-72
2022/09/02 09:44:43;;;;;;;1.55;1.00;;;21.70;75.60;;;;;;5016795;28;20056;-72
2022/09/02 09:47:21;;;;;;;3.00;0.90;;;21.80;74.20;;;;;;5016190;28;20183;-71
2022/09/02 09:50:12;;;;;;;2.97;0.80;;;21.90;74.30;;;;;;5011882;28;20068;-72
2022/09/02 09:52:38;;;;;;;4.03;1.13;;;22.00;75.70;;;;;;5016766;28;20018;-72
2022/09/02 09:55:21;;;;;;;2.67;0.90;;;22.10;73.50;;;;;;5019177;28;20056;-72
2022/09/02 09:57:48;;;;;;;2.70;0.90;;;22.00;71.80;;;;;;5020258;28;20040;-71
2022/09/02 10:00:27;;;;;;;2.63;0.90;;;22.00;72.70;;;;;;5026906;28;20042;-72
2022/09/02 10:02:59;;;;;;;3.65;0.98;;;22.20;72.70;;;;;;5019101;28;20112;-72
2022/09/02 10:05:34;;;;;;;4.20;0.93;;;22.30;71.80;;;;;;5024323;28;20393;-72
2022/09/02 10:08:17;;;;;;;2.30;0.80;;;22.50;70.90;;;;;;5028192;28;20021;-72
2022/09/02 10:11:01;;;;;;;5.72;0.80;;;22.70;70.90;;;;;;5029027;28;20053;-73
2022/09/02 10:13:32;;;;;;;2.55;0.80;;;22.90;69.00;;;;;;5026031;28;20135;-71
2022/09/02 10:16:14;;;;;;;2.80;0.93;;;23.10;68.70;;;;;;5028396;28;20417;-72
2022/09/02 10:18:53;;;;;;;3.40;0.98;;;23.20;66.40;;;;;;5017881;28;20029;-72
2022/09/02 10:21:37;;;;;;;2.50;0.85;;;23.40;65.70;;;;;;5014645;28;20370;-72
2022/09/02 10:24:32;;;;;;;2.13;0.90;;;23.50;64.40;;;;;;5009387;28;20030;-72
2022/09/02 10:26:59;;;;;;;1.23;0.73;;;23.50;62.60;;;;;;5018209;28;20042;-72
2022/09/02 10:29:31;;;;;;;1.75;0.90;;;23.20;61.40;;;;;;5021265;28;20048;-72
2022/09/02 10:32:12;;;;;;;3.30;0.97;;;22.80;60.80;;;;;;5026631;28;20432;-72
2022/09/02 10:35:07;;;;;;;1.17;0.80;;;22.60;62.20;;;;;;5024048;28;20287;-72
2022/09/02 10:37:42;;;;;;;1.70;0.90;;;22.50;61.50;;;;;;5021919;28;20021;-72
2022/09/02 10:40:11;;;;;;;2.17;0.90;;;22.70;61.80;;;;;;5018971;28;20025;-71
2022/09/02 10:42:53;;;;;;;3.13;0.90;;;22.90;61.20;;;;;;5020050;28;20116;-71
2022/09/02 10:45:44;;;;;;;1.20;0.90;;;23.00;58.40;;;;;;5014455;28;20022;-72
2022/09/02 10:48:35;;;;;;;1.85;0.93;;;23.00;58.30;;;;;;5026616;28;20448;-72
2022/09/02 10:51:13;;;;;;;3.35;1.15;;;22.90;59.70;;;;;;5023527;28;20044;-71
2022/09/02 10:53:59;;;;;;;1.20;0.70;;;22.80;59.60;;;;;;5021766;28;20030;-72
2022/09/02 10:56:32;;;;;;;3.47;0.90;;;22.60;60.60;;;;;;5024308;28;20044;-72
2022/09/02 10:59:07;;;;;;;3.28;1.20;;;22.60;61.70;;;;;;5012507;28;20052;-72
2022/09/02 11:01:48;;;;;;;3.50;0.80;;;22.60;61.50;;;;;;5006756;28;20115;-72
2022/09/02 11:04:38;;;;;;;4.28;0.90;;;22.60;59.90;;;;;;5022244;28;20021;-72
2022/09/02 11:07:09;;;;;;;1.65;0.82;;;22.70;60.10;;;;;;5008624;28;20033;-72
2022/09/02 11:09:55;;;;;;;2.25;0.80;;;22.80;59.80;;;;;;5015131;28;20116;-72
2022/09/02 11:12:34;;;;;;;1.77;1.17;;;22.90;60.10;;;;;;5008936;28;20090;-72
2022/09/02 11:15:21;;;;;;;4.00;1.15;;;22.80;59.70;;;;;;5009367;28;20033;-72
2022/09/02 11:17:57;;;;;;;0.93;0.90;;;22.70;61.70;;;;;;5017280;28;20040;-72
2022/09/02 11:20:34;;;;;;;2.70;1.05;;;22.60;62.50;;;;;;5023735;28;20095;-72
2022/09/02 11:23:05;;;;;;;1.50;0.88;;;22.60;64.00;;;;;;5013519;28;20022;-72
2022/09/02 11:29:27;;;;;;;1.52;0.93;;;22.50;61.30;;;;;;4980202;28;20465;-71
2022/09/02 11:32:17;;;;;;;4.18;1.10;;;22.80;61.20;;;;;;5005417;28;20486;-72
2022/09/02 11:34:46;;;;;;;2.25;0.98;;;22.90;61.20;;;;;;5016048;28;20533;-71
2022/09/02 11:37:28;;;;;;;1.88;0.90;;;23.00;61.30;;;;;;5024434;28;20030;-71
2022/09/02 11:40:06;;;;;;;1.70;0.98;;;23.10;61.40;;;;;;5024570;28;20401;-71
2022/09/02 11:43:02;;;;;;;2.83;1.10;;;23.10;60.80;;;;;;5021425;28;20034;-71
2022/09/02 11:46:06;;;;;;;5.80;1.05;;;23.30;60.90;;;;;;5015557;28;20505;-71
2022/09/02 11:48:52;;;;;;;3.45;1.00;;;23.20;61.40;;;;;;4924305;29;20071;-71
2022/09/02 11:51:36;;;;;;;7.15;1.35;;;23.20;61.30;;;;;;5013153;28;20032;-71
2022/09/02 11:54:04;;;;;;;6.38;1.10;;;23.30;61.20;;;;;;5013672;28;20034;-71
2022/09/02 11:56:40;;;;;;;7.47;1.17;;;23.50;60.00;;;;;;5026986;28;20587;-71
2022/09/02 11:59:07;;;;;;;1.88;0.88;;;23.80;60.60;;;;;;5018183;28;20041;-72
2022/09/02 12:01:48;;;;;;;3.05;0.80;;;23.80;59.30;;;;;;5007912;28;20038;-72
2022/09/02 12:04:14;;;;;;;1.50;0.90;;;23.60;59.10;;;;;;5021966;28;20058;-71
2022/09/02 12:07:01;;;;;;;1.20;0.70;;;23.60;59.20;;;;;;5012035;28;20068;-71
2022/09/02 12:09:58;;;;;;;4.00;0.90;;;23.60;59.80;;;;;;5014216;28;20457;-72
2022/09/02 12:12:37;;;;;;;3.88;0.88;;;23.50;59.60;;;;;;5010521;28;20056;-72
2022/09/02 12:15:06;;;;;;;4.28;0.90;;;23.40;59.10;;;;;;5011754;28;20032;-72
2022/09/02 12:17:41;;;;;;;0.82;0.77;;;23.30;59.60;;;;;;5021720;28;20044;-72
2022/09/02 12:20:10;;;;;;;1.45;0.80;;;23.20;60.30;;;;;;5012287;28;20411;-72
2022/09/02 12:22:40;;;;;;;1.67;0.90;;;23.20;59.90;;;;;;5011325;28;20053;-72
2022/09/02 12:25:24;;;;;;;1.23;1.00;;;23.30;60.60;;;;;;5013625;28;20060;-72
2022/09/02 12:28:08;;;;;;;1.73;0.90;;;23.40;59.30;;;;;;5010577;28;20026;-72
2022/09/02 12:31:17;;;;;;;2.88;0.90;;;23.40;59.80;;;;;;5017324;28;20473;-72
2022/09/02 12:33:48;;;;;;;2.35;0.75;;;23.30;60.10;;;;;;5018979;28;20046;-72
2022/09/02 12:36:35;;;;;;;3.00;0.77;;;23.40;60.40;;;;;;5023346;28;20449;-72
2022/09/02 12:39:23;;;;;;;2.38;0.85;;;23.60;59.70;;;;;;5015122;28;20121;-73
2022/09/02 12:42:09;;;;;;;1.55;0.80;;;23.60;59.30;;;;;;5005606;28;20065;-73
2022/09/02 12:44:47;;;;;;;2.55;0.77;;;23.50;58.70;;;;;;5019700;28;20442;-73
2022/09/02 12:47:18;;;;;;;6.57;0.70;;;23.30;58.90;;;;;;5006369;28;20545;-72
2022/09/02 12:50:04;;;;;;;4.32;0.90;;;23.20;59.60;;;;;;5024537;28;20081;-72
2022/09/02 12:52:42;;;;;;;19.17;1.20;;;23.20;59.30;;;;;;5021098;28;20106;-72
2022/09/02 12:55:27;;;;;;;5.57;0.90;;;23.40;60.00;;;;;;5017985;28;20128;-72
2022/09/02 12:58:09;;;;;;;2.33;1.02;;;23.50;58.00;;;;;;5009115;28;20033;-72
2022/09/02 13:01:04;;;;;;;7.32;0.98;;;23.60;57.80;;;;;;5021790;28;20033;-72
2022/09/02 13:03:32;;;;;;;1.40;0.80;;;23.90;55.90;;;;;;5006647;28;20065;-72
2022/09/02 13:06:07;;;;;;;5.10;1.00;;;24.30;56.00;;;;;;5013152;28;20025;-72
2022/09/02 13:08:56;;;;;;;2.17;0.80;;;24.60;55.30;;;;;;5016736;28;20113;-72
2022/09/02 13:11:34;;;;;;;6.07;0.90;;;24.60;56.70;;;;;;5006689;28;20605;-72
2022/09/02 13:14:18;;;;;;;3.00;1.02;;;24.70;56.40;;;;;;5019440;28;20025;-72